ADDS TAF Data INFO
IDs: Format: Raw Decoded Include METARs

Data at: 0733 UTC 18 Oct 2017

METAR for:KMOB (Mobile Rgnl, AL, US)
Text:KMOB 180656Z AUTO 04006KT 10SM CLR 13/11 A3019 RMK AO2 SLP220 T01330106
Temperature: 13.3°C ( 56°F)
Dewpoint: 10.6°C ( 51°F) [RH = 84%]
Pressure (altimeter):30.19 inches Hg (1022.4 mb) [Sea level pressure: 1022.0 mb]
Winds:from the NE (40 degrees) at 7 MPH (6 knots; 3.1 m/s)
Visibility:10 or more sm (16+ km)
Ceiling:at least 12,000 feet AGL
Clouds:sky clear below 12,000 feet AGL
QC Flag:automated observation with no human augmentation

TAF for:KMOB (Mobile Rgnl, AL, US) issued at 0523 UTC 18 Oct 2017
Text:KMOB 180523Z 1806/1906 04006KT P6SM SKC
Forecast period:0600 UTC 18 October 2017 to 0600 UTC 19 October 2017
Forecast type:FROM: standard forecast or significant change
Winds:from the NE (40 degrees) at 7 MPH (6 knots; 3.1 m/s)
Visibility:6 or more sm (10+ km)
Ceiling:at least 12,000 feet AGL
Clouds:clear skies